Time;durP1;ratioP1;P1;durP2;ratioP2;P2;SDS_P1;SDS_P2;PMS_P1;PMS_P2;Temp;Humidity;BMP_temperature;BMP_pressure;BME280_temperature;BME280_humidity;BME280_pressure;Samples;Min_cycle;Max_cycle;Signal;HPM_P1;HPM_P2
2021/07/10 00:04:27;;;;;;;0.40;0.17;;;12.70;99.90;;;;;;20901570;28;20478;-50
2021/07/10 00:14:28;;;;;;;4.78;0.30;;;12.30;99.90;;;;;;20901384;28;20051;-46
2021/07/10 00:24:31;;;;;;;1.08;0.20;;;12.00;99.90;;;;;;20911660;28;20045;-45
2021/07/10 00:34:33;;;;;;;2.40;0.25;;;12.00;99.90;;;;;;20915138;28;20036;-46
2021/07/10 00:44:34;;;;;;;0.20;0.20;;;12.00;99.90;;;;;;20914419;28;20183;-48
2021/07/10 00:54:37;;;;;;;0.50;0.30;;;12.00;99.90;;;;;;20913304;28;20560;-47
2021/07/10 01:04:39;;;;;;;0.25;0.20;;;11.80;99.50;;;;;;20912468;28;20029;-46
2021/07/10 01:14:41;;;;;;;0.20;0.10;;;12.20;99.10;;;;;;20911518;28;20087;-47
2021/07/10 01:24:45;;;;;;;0.40;0.13;;;11.90;98.00;;;;;;20910445;28;20032;-48
2021/07/10 01:34:48;;;;;;;0.63;0.20;;;;;;;;;;20910294;28;20086;-46
2021/07/10 01:44:51;;;;;;;0.10;0.10;;;11.70;99.90;;;;;;20909899;28;20036;-51
2021/07/10 01:54:53;;;;;;;0.38;0.20;;;11.70;99.90;;;;;;20991225;28;20049;-46
2021/07/10 02:04:54;;;;;;;0.80;0.20;;;11.70;99.90;;;;;;20989017;28;20098;-46
2021/07/10 02:14:56;;;;;;;0.80;0.40;;;11.60;99.90;;;;;;20920575;28;20033;-47
2021/07/10 02:24:57;;;;;;;0.75;0.40;;;11.80;99.90;;;;;;20907386;28;20032;-45
2021/07/10 02:34:59;;;;;;;1.02;0.35;;;12.40;99.90;;;;;;20905563;28;20386;-45
2021/07/10 02:45:03;;;;;;;0.65;0.30;;;12.20;99.90;;;;;;20904519;28;20371;-46
2021/07/10 02:55:06;;;;;;;0.73;0.40;;;12.10;99.90;;;;;;20904136;28;20087;-46
2021/07/10 03:05:09;;;;;;;1.60;0.70;;;12.30;99.90;;;;;;20903706;28;20025;-45
2021/07/10 03:15:15;;;;;;;1.65;0.95;;;12.40;99.90;;;;;;20903452;28;20033;-47
2021/07/10 03:25:17;;;;;;;1.85;0.90;;;12.60;99.90;;;;;;20903435;28;20036;-47
2021/07/10 03:35:20;;;;;;;1.17;0.75;;;12.90;99.90;;;;;;20903063;28;20114;-47
2021/07/10 03:45:22;;;;;;;2.22;0.98;;;13.00;99.90;;;;;;20900903;28;20095;-46
2021/07/10 03:55:23;;;;;;;1.45;0.65;;;13.00;99.90;;;;;;20908201;28;20045;-46
2021/07/10 04:05:25;;;;;;;2.35;0.90;;;13.20;99.90;;;;;;20917532;28;20479;-50
2021/07/10 04:15:26;;;;;;;2.80;1.08;;;13.30;99.90;;;;;;20916530;28;20040;-45
2021/07/10 04:25:28;;;;;;;2.15;1.00;;;12.90;99.90;;;;;;20916094;28;20037;-48
2021/07/10 04:35:30;;;;;;;3.22;0.73;;;12.40;99.90;;;;;;20915418;28;20044;-47
2021/07/10 04:45:31;;;;;;;1.00;0.60;;;12.30;99.90;;;;;;20914649;28;20104;-47
2021/07/10 04:55:33;;;;;;;1.23;0.57;;;12.40;99.90;;;;;;20913581;28;20045;-45
2021/07/10 05:05:36;;;;;;;0.98;0.60;;;12.50;99.90;;;;;;20912410;28;20029;-46
2021/07/10 05:15:37;;;;;;;1.58;0.57;;;12.60;99.90;;;;;;20912077;28;20029;-48
2021/07/10 05:25:39;;;;;;;1.55;0.40;;;12.60;99.90;;;;;;20911134;28;20045;-46
2021/07/10 05:35:41;;;;;;;0.57;0.30;;;12.80;99.90;;;;;;20910173;28;20048;-48
2021/07/10 05:45:43;;;;;;;0.90;0.40;;;13.10;99.90;;;;;;20909827;28;20478;-48
2021/07/10 05:55:44;;;;;;;0.50;0.40;;;13.50;99.90;;;;;;20908351;28;20041;-45
2021/07/10 06:05:46;;;;;;;0.80;0.30;;;13.60;99.90;;;;;;20909394;28;20041;-47
2021/07/10 06:15:48;;;;;;;0.40;0.30;;;13.90;99.90;;;;;;20906789;28;20471;-49
2021/07/10 06:25:49;;;;;;;0.80;0.30;;;18.00;99.90;;;;;;20906641;28;20037;-46
2021/07/10 06:35:51;;;;;;;0.55;0.40;;;21.50;95.30;;;;;;20905761;28;20041;-46
2021/07/10 06:45:53;;;;;;;0.95;0.50;;;23.90;88.00;;;;;;20905444;28;20344;-46
2021/07/10 06:55:55;;;;;;;2.05;0.40;;;24.80;82.00;;;;;;20904602;28;20037;-46
2021/07/10 07:05:57;;;;;;;1.55;0.50;;;26.10;77.20;;;;;;20904417;28;20037;-46
2021/07/10 07:15:58;;;;;;;0.40;0.30;;;27.00;75.20;;;;;;20904711;28;20033;-46
2021/07/10 07:26:00;;;;;;;0.60;0.30;;;29.40;71.90;;;;;;20903990;28;20033;-51
2021/07/10 07:36:03;;;;;;;0.65;0.30;;;30.30;68.00;;;;;;20919188;28;20056;-52
2021/07/10 07:46:05;;;;;;;2.20;1.10;;;30.90;66.20;;;;;;20919466;28;20025;-50
2021/07/10 07:56:06;;;;;;;1.10;0.70;;;31.30;62.30;;;;;;20918752;28;20098;-47
2021/07/10 08:06:08;;;;;;;1.50;1.05;;;30.30;61.60;;;;;;20917862;28;20039;-47
2021/07/10 08:16:12;;;;;;;0.85;0.60;;;30.20;62.00;;;;;;20916715;28;20498;-49
2021/07/10 08:26:13;;;;;;;0.83;0.73;;;29.60;65.00;;;;;;20916429;28;20032;-51
2021/07/10 08:36:15;;;;;;;1.10;0.98;;;29.30;65.00;;;;;;20915169;28;20098;-46
2021/07/10 08:46:20;;;;;;;2.80;1.50;;;29.30;67.40;;;;;;20913838;28;20028;-49
2021/07/10 08:56:21;;;;;;;2.13;1.40;;;29.30;67.90;;;;;;20913774;28;20495;-50
2021/07/10 09:06:23;;;;;;;3.25;2.00;;;29.00;69.10;;;;;;20913150;28;20033;-50
2021/07/10 09:16:36;;;;;;;2.33;1.70;;;26.70;75.30;;;;;;20912437;28;20032;-49
2021/07/10 09:26:45;;;;;;;2.17;1.88;;;26.80;76.70;;;;;;20911296;28;20046;-48
2021/07/10 09:37:00;;;;;;;3.80;2.53;;;25.60;83.80;;;;;;20910788;28;20079;-47
2021/07/10 09:47:04;;;;;;;7.03;2.30;;;25.70;81.10;;;;;;20909251;28;20078;-47
2021/07/10 09:57:18;;;;;;;3.53;2.05;;;24.80;86.10;;;;;;20908718;28;20057;-48
2021/07/10 10:07:21;;;;;;;4.05;2.28;;;24.30;83.80;;;;;;20908026;28;20082;-46
2021/07/10 10:17:25;;;;;;;3.97;2.45;;;23.70;85.40;;;;;;20907536;28;20032;-46
2021/07/10 10:27:27;;;;;;;4.00;2.92;;;23.40;86.00;;;;;;20906981;28;20041;-50
2021/07/10 10:37:29;;;;;;;3.30;2.95;;;23.20;90.20;;;;;;20905681;28;20033;-49
2021/07/10 10:47:48;;;;;;;5.95;3.90;;;23.30;91.20;;;;;;20905371;28;20033;-46
2021/07/10 10:57:57;;;;;;;4.30;3.70;;;23.20;92.00;;;;;;20904758;28;20103;-47
2021/07/10 11:08:36;;;;;;;3.33;2.95;;;23.80;91.00;;;;;;20904004;28;20032;-47
2021/07/10 11:18:58;;;;;;;4.30;3.90;;;23.20;92.50;;;;;;20902052;28;20114;-46
2021/07/10 11:29:00;;;;;;;3.20;3.00;;;23.50;93.10;;;;;;20903758;28;20486;-49
2021/07/10 11:39:25;;;;;;;3.38;2.70;;;25.50;87.00;;;;;;20902932;28;20029;-48
2021/07/10 11:49:36;;;;;;;4.28;3.88;;;25.40;88.00;;;;;;20902674;28;20369;-48
2021/07/10 11:59:40;;;;;;;4.10;3.65;;;24.10;91.00;;;;;;20904287;28;20467;-47
2021/07/10 12:09:50;;;;;;;3.78;3.47;;;24.00;92.10;;;;;;20902082;28;20098;-46
2021/07/10 12:19:53;;;;;;;5.97;3.72;;;25.10;91.20;;;;;;20912793;28;20394;-49
2021/07/10 12:29:55;;;;;;;5.05;4.47;;;26.30;84.80;;;;;;20916118;28;20036;-49
2021/07/10 12:40:09;;;;;;;3.92;2.97;;;24.80;87.60;;;;;;20914520;28;20032;-49
2021/07/10 12:50:13;;;;;;;7.45;3.60;;;25.00;88.60;;;;;;20913967;28;20409;-48
2021/07/10 13:00:27;;;;;;;4.57;2.20;;;25.20;87.50;;;;;;20913516;28;20029;-49
2021/07/10 13:10:32;;;;;;;5.50;3.25;;;24.80;85.00;;;;;;20913073;28;20362;-49
2021/07/10 13:20:36;;;;;;;2.65;2.28;;;24.30;88.40;;;;;;20912128;28;20045;-52
2021/07/10 13:30:37;;;;;;;4.35;3.70;;;23.90;90.90;;;;;;20911860;28;20032;-48
2021/07/10 13:40:39;;;;;;;4.45;3.05;;;23.70;89.90;;;;;;20910679;28;20040;-45
2021/07/10 13:50:41;;;;;;;5.22;2.10;;;24.20;92.50;;;;;;20909986;28;20122;-46
2021/07/10 14:00:44;;;;;;;3.65;2.70;;;25.90;87.70;;;;;;20909312;28;20087;-48
2021/07/10 14:10:51;;;;;;;6.00;2.80;;;25.60;87.20;;;;;;20908107;28;20074;-49
2021/07/10 14:20:54;;;;;;;2.77;2.47;;;25.40;84.90;;;;;;20907649;28;20033;-48
2021/07/10 14:30:58;;;;;;;4.32;2.45;;;25.00;89.30;;;;;;20907274;28;20430;-50
2021/07/10 14:41:00;;;;;;;3.65;2.33;;;26.30;85.40;;;;;;20905974;28;20032;-48
2021/07/10 14:51:02;;;;;;;1.63;1.52;;;27.10;81.70;;;;;;20905612;28;20049;-51
2021/07/10 15:01:05;;;;;;;2.70;1.80;;;29.50;78.70;;;;;;20906606;28;20040;-50
2021/07/10 15:11:08;;;;;;;2.72;2.50;;;28.10;77.60;;;;;;20903531;28;20048;-47
2021/07/10 15:21:11;;;;;;;2.50;2.30;;;29.30;74.30;;;;;;20904091;28;20529;-51
2021/07/10 15:31:13;;;;;;;3.10;2.15;;;29.20;73.60;;;;;;20904150;28;20368;-52
2021/07/10 15:41:15;;;;;;;2.35;1.98;;;30.00;71.70;;;;;;20903218;28;20359;-50
2021/07/10 15:51:40;;;;;;;4.53;1.83;;;29.30;72.30;;;;;;20909627;28;20049;-52
2021/07/10 16:01:42;;;;;;;4.05;1.98;;;27.60;74.60;;;;;;20919097;28;20029;-49
2021/07/10 16:11:44;;;;;;;2.88;2.25;;;24.40;81.50;;;;;;20918741;28;20045;-49
2021/07/10 16:21:46;;;;;;;3.70;2.33;;;22.50;89.10;;;;;;20916905;28;20040;-48
2021/07/10 16:31:47;;;;;;;3.10;1.85;;;21.60;91.40;;;;;;20916727;28;20033;-49
2021/07/10 16:41:49;;;;;;;2.88;2.40;;;20.80;92.30;;;;;;20916090;28;20036;-50
2021/07/10 16:51:51;;;;;;;3.42;2.25;;;20.30;94.30;;;;;;20914632;28;20114;-48
2021/07/10 17:01:52;;;;;;;2.65;2.15;;;20.30;94.20;;;;;;20912986;28;20098;-48
2021/07/10 17:11:54;;;;;;;2.80;2.13;;;20.10;94.90;;;;;;20913097;28;20033;-50
2021/07/10 17:21:56;;;;;;;2.88;2.50;;;19.50;96.30;;;;;;20912905;28;20095;-47
2021/07/10 17:31:58;;;;;;;2.67;2.28;;;18.90;96.80;;;;;;20911354;28;20395;-46
2021/07/10 17:41:59;;;;;;;2.50;2.20;;;18.60;97.20;;;;;;20911273;28;20135;-48
2021/07/10 17:52:02;;;;;;;2.20;2.00;;;18.50;96.60;;;;;;20911080;28;20118;-47
2021/07/10 18:02:05;;;;;;;3.83;2.15;;;18.40;99.00;;;;;;20909517;28;20033;-47
2021/07/10 18:12:07;;;;;;;3.17;2.28;;;18.10;99.80;;;;;;20908586;28;20044;-51
2021/07/10 18:22:08;;;;;;;2.95;2.60;;;17.50;99.90;;;;;;20908453;28;20058;-46
2021/07/10 18:32:10;;;;;;;3.95;3.17;;;;;;;;;;20907325;28;20033;-47
2021/07/10 18:42:12;;;;;;;4.40;4.00;;;16.10;99.90;;;;;;20906839;28;20098;-45
2021/07/10 18:52:15;;;;;;;5.38;4.70;;;15.70;99.90;;;;;;20905796;28;20103;-45
2021/07/10 19:02:17;;;;;;;4.50;3.97;;;15.40;99.90;;;;;;20905191;28;20095;-47
2021/07/10 19:12:19;;;;;;;6.55;4.50;;;15.40;99.90;;;;;;20904802;28;20425;-46
2021/07/10 19:22:21;;;;;;;3.95;3.55;;;15.40;99.90;;;;;;20904591;28;20367;-45
2021/07/10 19:32:23;;;;;;;4.20;3.22;;;14.90;99.90;;;;;;20921120;28;20029;-47
2021/07/10 19:42:25;;;;;;;5.25;3.40;;;14.60;99.90;;;;;;20920592;28;20032;-46
2021/07/10 19:52:29;;;;;;;7.07;2.78;;;14.60;99.90;;;;;;20919449;28;20067;-46
2021/07/10 20:02:31;;;;;;;2.88;2.53;;;14.30;99.90;;;;;;20919867;28;20029;-48
2021/07/10 20:12:34;;;;;;;3.05;1.73;;;14.10;99.90;;;;;;20918416;28;20055;-46
2021/07/10 20:22:36;;;;;;;1.83;1.65;;;13.80;99.90;;;;;;20917580;28;20036;-47
2021/07/10 20:32:38;;;;;;;2.25;1.58;;;13.70;99.90;;;;;;20917083;28;20040;-45
2021/07/10 20:42:40;;;;;;;4.80;2.55;;;13.70;99.90;;;;;;20914896;28;20032;-45
2021/07/10 20:52:42;;;;;;;4.50;2.22;;;13.70;99.90;;;;;;20915182;28;20487;-46
2021/07/10 21:02:44;;;;;;;3.85;2.70;;;13.50;99.90;;;;;;20914747;28;20470;-48
2021/07/10 21:12:47;;;;;;;4.03;2.80;;;13.40;99.90;;;;;;20913680;28;20055;-46
2021/07/10 21:22:52;;;;;;;4.93;2.90;;;13.50;99.90;;;;;;20912832;28;20037;-46
2021/07/10 21:32:54;;;;;;;5.78;3.85;;;13.50;99.90;;;;;;20910271;28;20049;-46
2021/07/10 21:42:56;;;;;;;7.05;3.92;;;13.60;99.90;;;;;;20911774;28;20033;-45
2021/07/10 21:52:58;;;;;;;6.50;3.40;;;13.60;99.90;;;;;;20911100;28;20044;-47
2021/07/10 22:03:01;;;;;;;5.68;3.97;;;14.00;99.90;;;;;;20909963;28;20364;-47
2021/07/10 22:13:03;;;;;;;5.95;4.18;;;13.90;99.90;;;;;;20908677;28;20025;-44
2021/07/10 22:23:05;;;;;;;5.60;4.07;;;13.80;99.90;;;;;;20908005;28;20032;-45
2021/07/10 22:33:07;;;;;;;5.70;4.97;;;13.50;99.90;;;;;;20907145;28;20029;-45
2021/07/10 22:43:08;;;;;;;5.00;4.10;;;13.40;99.90;;;;;;20906696;28;20044;-47
2021/07/10 22:53:10;;;;;;;6.40;4.38;;;13.40;99.90;;;;;;20906022;28;20033;-49
2021/07/10 23:03:19;;;;;;;7.00;4.70;;;13.10;99.90;;;;;;20904932;28;20029;-45
2021/07/10 23:13:20;;;;;;;8.63;4.50;;;13.30;99.90;;;;;;20904402;28;20390;-46
2021/07/10 23:23:22;;;;;;;6.80;4.30;;;13.30;99.90;;;;;;20905124;28;20091;-48
2021/07/10 23:33:24;;;;;;;7.53;5.05;;;13.60;99.90;;;;;;20904318;28;20037;-45
2021/07/10 23:43:26;;;;;;;6.53;5.45;;;13.70;99.90;;;;;;20904222;28;20029;-48
2021/07/10 23:53:28;;;;;;;10.32;6.95;;;13.70;99.90;;;;;;20904287;28;20103;-50
